Koushinmaru — JD3754 — position and weather

sailwx.info

Track history (hours):
 
Tides and Currents Weather Stations Pressure Air Temp Water Temp Dewpoint Dewpoint Depression Visibility Wind Speed Wind Dir Waves Ship Positions

Koushinmaru

Last reported at 2017-Nov-08 06:46 UTC. Time now 2017-Nov-21 02:42 UTC.
Position N 34°37' E 134°59'.
Warning: this ship's position is 12 days out of date.

Length 75 m; draft 4.8 m.

Type: Ship. MMSI: 431005815.

Date/timePositionNaut miles runAvg speedWind from/ knotsBaromVisibWave heightAir tempDewpointWater temp
2017-Nov-08 06:46N 34°37' E 134°59'3 9.8
2017-Nov-08 06:30N 34°37' E 135°02'611.5
2017-Nov-08 06:00N 34°35' E 135°08'612.4
2017-Nov-08 05:30N 34°33' E 135°16'3 4.9
2017-Nov-08 04:57N 34°33' E 135°19'0 0.0
2017-Nov-08 04:23N 34°33' E 135°19'3 6.1
2017-Nov-08 03:51N 34°33' E 135°23'3 0.7
2017-Nov-07 23:48N 34°33' E 135°26'1 4.0
2017-Nov-07 23:30N 34°33' E 135°25'5 9.9
2017-Nov-07 23:00N 34°33' E 135°19'0 0.3
2017-Nov-07 22:13N 34°33' E 135°18'0 0.0
2017-Nov-07 21:55N 34°33' E 135°18'0 0.1
2017-Nov-07 21:13N 34°33' E 135°18'0 0.0
2017-Nov-07 20:49N 34°33' E 135°18'0 0.0
2017-Nov-07 20:25N 34°33' E 135°18'0 0.0
2017-Nov-07 19:55N 34°33' E 135°18'0 0.0
2017-Nov-07 19:13N 34°33' E 135°18'0 0.0
2017-Nov-07 18:49N 34°33' E 135°18'0 0.0
2017-Nov-07 18:01N 34°33' E 135°18'0 0.0
2017-Nov-07 17:49N 34°33' E 135°18'0 0.0
2017-Nov-07 16:49N 34°33' E 135°18'0 0.0
2017-Nov-07 16:25N 34°33' E 135°18'0 0.0
2017-Nov-07 15:49N 34°33' E 135°18'0 0.0
2017-Nov-07 15:13N 34°33' E 135°18'0 0.0
2017-Nov-07 14:55N 34°33' E 135°18'0 0.0
2017-Nov-07 14:13N 34°33' E 135°18'0 0.0
2017-Nov-07 13:55N 34°33' E 135°18'0 0.0
2017-Nov-07 13:25N 34°33' E 135°18'0 0.1
2017-Nov-07 12:55N 34°33' E 135°18'0 0.0
2017-Nov-07 12:25N 34°33' E 135°18'0 0.1
2017-Nov-07 11:55N 34°33' E 135°18'0 0.0
2017-Nov-07 11:19N 34°33' E 135°18'0 0.0
2017-Nov-07 10:55N 34°33' E 135°18'0 0.0
2017-Nov-07 10:07N 34°33' E 135°18'0 0.0
2017-Nov-07 09:49N 34°33' E 135°18'0 0.0
2017-Nov-07 09:25N 34°33' E 135°18'0 0.0
2017-Nov-07 08:55N 34°33' E 135°18'0 0.0
2017-Nov-07 08:13N 34°33' E 135°18'0 0.0
2017-Nov-07 07:55N 34°33' E 135°18'0 0.1
2017-Nov-07 06:23N 34°33' E 135°18'410.1
2017-Nov-07 06:00N 34°34' E 135°14'714.2
2017-Nov-07 05:30N 34°35' E 135°05'  
2017-Oct-31 16:23N 34°02' E 134°59'513.3
2017-Oct-31 16:00N 34°07' E 134°59'713.8
2017-Oct-31 15:30N 34°14' E 134°58'814.1
2017-Oct-31 14:57N 34°22' E 134°59'613.8
2017-Oct-31 14:30N 34°28' E 135°01'713.4
2017-Oct-31 14:00N 34°34' E 135°03'  
Track history (hours):
 
Tides and Currents Weather Stations Pressure Air Temp Water Temp Dewpoint Dewpoint Depression Visibility Wind Speed Wind Dir Waves Ship Positions

Koushinmaru

Last reported at 2017-Nov-08 06:46 UTC. Time now 2017-Nov-21 02:42 UTC.
Position N 34°37' E 134°59'.
Warning: this ship's position is 12 days out of date.

Length 75 m; draft 4.8 m.

Type: Ship. MMSI: 431005815.

Date/timePositionNaut miles runAvg speedWind from/ knotsBaromVisibWave heightAir tempDewpointWater temp
2017-Nov-08 06:46N 34°37' E 134°59'3 9.8
2017-Nov-08 06:30N 34°37' E 135°02'611.5
2017-Nov-08 06:00N 34°35' E 135°08'612.4
2017-Nov-08 05:30N 34°33' E 135°16'3 4.9
2017-Nov-08 04:57N 34°33' E 135°19'0 0.0
2017-Nov-08 04:23N 34°33' E 135°19'3 6.1
2017-Nov-08 03:51N 34°33' E 135°23'3 0.7
2017-Nov-07 23:48N 34°33' E 135°26'1 4.0
2017-Nov-07 23:30N 34°33' E 135°25'5 9.9
2017-Nov-07 23:00N 34°33' E 135°19'0 0.3
2017-Nov-07 22:13N 34°33' E 135°18'0 0.0
2017-Nov-07 21:55N 34°33' E 135°18'0 0.1
2017-Nov-07 21:13N 34°33' E 135°18'0 0.0
2017-Nov-07 20:49N 34°33' E 135°18'0 0.0
2017-Nov-07 20:25N 34°33' E 135°18'0 0.0
2017-Nov-07 19:55N 34°33' E 135°18'0 0.0
2017-Nov-07 19:13N 34°33' E 135°18'0 0.0
2017-Nov-07 18:49N 34°33' E 135°18'0 0.0
2017-Nov-07 18:01N 34°33' E 135°18'0 0.0
2017-Nov-07 17:49N 34°33' E 135°18'0 0.0
2017-Nov-07 16:49N 34°33' E 135°18'0 0.0
2017-Nov-07 16:25N 34°33' E 135°18'0 0.0
2017-Nov-07 15:49N 34°33' E 135°18'0 0.0
2017-Nov-07 15:13N 34°33' E 135°18'0 0.0
2017-Nov-07 14:55N 34°33' E 135°18'0 0.0
2017-Nov-07 14:13N 34°33' E 135°18'0 0.0
2017-Nov-07 13:55N 34°33' E 135°18'0 0.0
2017-Nov-07 13:25N 34°33' E 135°18'0 0.1
2017-Nov-07 12:55N 34°33' E 135°18'0 0.0
2017-Nov-07 12:25N 34°33' E 135°18'0 0.1
2017-Nov-07 11:55N 34°33' E 135°18'0 0.0
2017-Nov-07 11:19N 34°33' E 135°18'0 0.0
2017-Nov-07 10:55N 34°33' E 135°18'0 0.0
2017-Nov-07 10:07N 34°33' E 135°18'0 0.0
2017-Nov-07 09:49N 34°33' E 135°18'0 0.0
2017-Nov-07 09:25N 34°33' E 135°18'0 0.0
2017-Nov-07 08:55N 34°33' E 135°18'0 0.0
2017-Nov-07 08:13N 34°33' E 135°18'0 0.0
2017-Nov-07 07:55N 34°33' E 135°18'0 0.1
2017-Nov-07 06:23N 34°33' E 135°18'410.1
2017-Nov-07 06:00N 34°34' E 135°14'714.2
2017-Nov-07 05:30N 34°35' E 135°05'  
2017-Oct-31 16:23N 34°02' E 134°59'513.3
2017-Oct-31 16:00N 34°07' E 134°59'713.8
2017-Oct-31 15:30N 34°14' E 134°58'814.1
2017-Oct-31 14:57N 34°22' E 134°59'613.8
2017-Oct-31 14:30N 34°28' E 135°01'713.4
2017-Oct-31 14:00N 34°34' E 135°03'  

Dump ship's entire track history